Corrigan, TX (75939)

6:45 AM CST on November 21, 2014 (GMT -0600)
MesoWest CORIGN TX US UPR | Change Station
CLOSE
Current Station
Personal Weather Station
Location: Barnum, TX
Elevation: 217 ft
Nearby Weather Stations

Elev 217 ft 31.01 °N, 94.83 °W | Updated 1 hour ago

Overcast
Overcast
63 °F
Feels Like 63 °F
N
Wind Variable Wind from North
Gusts 0.0 mph

Today
High -- | Low -- °F
--% Chance of Precip.
Yesterday
High -- | Low -- °F
Precip. -- in
6:51 AM 5:18 PM
Waning Crescent, 1% visible
Pressure 30.12 in
Visibility 9.0 miles
Clouds Overcast 600 ft
Dew Point Not available.
Humidity Not available.
Rainfall -999.00 in
Snow Depth Not available.
UV 0 out of 12
Pollen 1.20 out of 12
Air Quality Not available.
Flu Activity Not available.
METAR KLFK 211153Z AUTO 12010KT 9SM OVC006 16/13 A3013 RMK AO2 RAE31 SLP200 P0000 60016 7//// T01560133 10161 20150 52003

More Conditions Fewer Conditions

Pressure 30.12 in
Visibility 9.0 miles
Clouds Overcast 600 ft
Dew Point Not available.
Humidity Not available.
Rainfall -999.00 in
Snow Depth Not available.
UV 0 out of 12
Pollen 1.20 out of 12
Air Quality Not available.
Flu Activity Not available.
METAR KLFK 211153Z AUTO 12010KT 9SM OVC006 16/13 A3013 RMK AO2 RAE31 SLP200 P0000 60016 7//// T01560133 10161 20150 52003

More Conditions Fewer Conditions

10-Day Weather Forecast

Almanac

Astronomy

Nov. 21, 2014 Rise Set
Actual Time
Civil Twilight
Nautical Twilight
Astronomical Twilight
Moon
Length of Visible Light
Length of Day
Tomorrow will be .
, % of the Moon is Illuminated

Today's Extremes

State Highs State Lows

Community

WunderPhotos

Upload Photos

1,772,655 photos uploaded!

WunderBlogs® & News

Nearby

Air Quality

  Air Quality AQ Index Pollutant
Not available.

Snow Depth

Station Depth Elevation

Earthquake Activity

City Distance Mag. Time & Date
Minimum magnitude displayed is 2.5.

Coastal Water Temperatures

Place Temperature

Nearby Weather Stations